sensor_id;sensor_type;location;lat;lon;timestamp;temperature;humidity
18047;DHT22;9148;51.454;13.862;2022-07-23T00:01:19;20.20;96.80
18047;DHT22;9148;51.454;13.862;2022-07-23T00:03:46;20.10;97.00
18047;DHT22;9148;51.454;13.862;2022-07-23T00:06:11;20.10;97.20
18047;DHT22;9148;51.454;13.862;2022-07-23T00:08:37;20.10;97.30
18047;DHT22;9148;51.454;13.862;2022-07-23T00:11:03;20.10;97.50
18047;DHT22;9148;51.454;13.862;2022-07-23T00:13:29;20.00;97.60
18047;DHT22;9148;51.454;13.862;2022-07-23T00:15:54;19.90;97.80
18047;DHT22;9148;51.454;13.862;2022-07-23T00:18:20;19.90;98.00
18047;DHT22;9148;51.454;13.862;2022-07-23T00:20:46;19.90;98.20
18047;DHT22;9148;51.454;13.862;2022-07-23T00:23:12;19.80;98.40
18047;DHT22;9148;51.454;13.862;2022-07-23T00:25:38;19.80;98.60
18047;DHT22;9148;51.454;13.862;2022-07-23T00:28:04;19.80;98.80
18047;DHT22;9148;51.454;13.862;2022-07-23T00:30:31;19.70;98.90
18047;DHT22;9148;51.454;13.862;2022-07-23T00:33:00;19.70;99.10
18047;DHT22;9148;51.454;13.862;2022-07-23T00:35:29;19.70;99.30
18047;DHT22;9148;51.454;13.862;2022-07-23T00:37:57;19.60;99.40
18047;DHT22;9148;51.454;13.862;2022-07-23T00:40:25;19.60;99.60
18047;DHT22;9148;51.454;13.862;2022-07-23T00:42:51;19.60;99.70
18047;DHT22;9148;51.454;13.862;2022-07-23T00:45:16;19.50;99.80
18047;DHT22;9148;51.454;13.862;2022-07-23T00:47:42;19.50;99.90
18047;DHT22;9148;51.454;13.862;2022-07-23T00:50:09;19.50;99.90
18047;DHT22;9148;51.454;13.862;2022-07-23T00:52:36;19.50;99.90
18047;DHT22;9148;51.454;13.862;2022-07-23T00:55:05;19.50;99.90
18047;DHT22;9148;51.454;13.862;2022-07-23T00:57:31;19.40;99.90
18047;DHT22;9148;51.454;13.862;2022-07-23T00:59:57;19.40;99.90
18047;DHT22;9148;51.454;13.862;2022-07-23T01:02:24;19.30;99.90
18047;DHT22;9148;51.454;13.862;2022-07-23T01:04:51;19.30;99.90
18047;DHT22;9148;51.454;13.862;2022-07-23T01:07:17;19.30;99.90
18047;DHT22;9148;51.454;13.862;2022-07-23T01:09:44;19.20;99.90
18047;DHT22;9148;51.454;13.862;2022-07-23T01:12:10;19.20;99.90
18047;DHT22;9148;51.454;13.862;2022-07-23T01:14:36;19.20;99.90
18047;DHT22;9148;51.454;13.862;2022-07-23T01:17:02;19.10;99.90
18047;DHT22;9148;51.454;13.862;2022-07-23T01:19:28;19.10;99.90
18047;DHT22;9148;51.454;13.862;2022-07-23T01:21:57;19.10;99.90
18047;DHT22;9148;51.454;13.862;2022-07-23T01:24:23;19.00;99.90
18047;DHT22;9148;51.454;13.862;2022-07-23T01:26:49;19.10;99.90
18047;DHT22;9148;51.454;13.862;2022-07-23T01:29:15;19.10;99.90
18047;DHT22;9148;51.454;13.862;2022-07-23T01:31:41;19.10;99.90
18047;DHT22;9148;51.454;13.862;2022-07-23T01:34:07;19.10;99.90
18047;DHT22;9148;51.454;13.862;2022-07-23T01:36:34;19.10;99.90
18047;DHT22;9148;51.454;13.862;2022-07-23T01:39:00;19.10;99.90
18047;DHT22;9148;51.454;13.862;2022-07-23T01:41:26;19.00;99.90
18047;DHT22;9148;51.454;13.862;2022-07-23T01:43:52;19.00;99.90
18047;DHT22;9148;51.454;13.862;2022-07-23T01:46:17;19.00;99.90
18047;DHT22;9148;51.454;13.862;2022-07-23T01:48:43;18.90;99.90
18047;DHT22;9148;51.454;13.862;2022-07-23T01:51:09;18.90;99.90
18047;DHT22;9148;51.454;13.862;2022-07-23T01:53:35;18.90;99.90
18047;DHT22;9148;51.454;13.862;2022-07-23T01:56:01;18.90;99.90
18047;DHT22;9148;51.454;13.862;2022-07-23T01:58:27;18.80;99.90
18047;DHT22;9148;51.454;13.862;2022-07-23T02:00:53;18.80;99.90
18047;DHT22;9148;51.454;13.862;2022-07-23T02:03:20;18.80;99.90
18047;DHT22;9148;51.454;13.862;2022-07-23T02:05:46;18.70;99.90
18047;DHT22;9148;51.454;13.862;2022-07-23T02:08:11;18.70;99.90
18047;DHT22;9148;51.454;13.862;2022-07-23T02:10:37;18.70;99.90
18047;DHT22;9148;51.454;13.862;2022-07-23T02:13:03;18.60;99.90
18047;DHT22;9148;51.454;13.862;2022-07-23T02:15:29;18.60;99.90
18047;DHT22;9148;51.454;13.862;2022-07-23T02:17:55;18.60;99.90
18047;DHT22;9148;51.454;13.862;2022-07-23T02:20:21;18.60;99.90
18047;DHT22;9148;51.454;13.862;2022-07-23T02:22:48;18.60;99.90
18047;DHT22;9148;51.454;13.862;2022-07-23T02:25:13;18.50;99.90
18047;DHT22;9148;51.454;13.862;2022-07-23T02:27:39;18.50;99.90
18047;DHT22;9148;51.454;13.862;2022-07-23T02:30:06;18.50;99.90
18047;DHT22;9148;51.454;13.862;2022-07-23T02:32:32;18.50;99.90
18047;DHT22;9148;51.454;13.862;2022-07-23T02:34:58;18.50;99.90
18047;DHT22;9148;51.454;13.862;2022-07-23T02:37:23;18.50;99.90
18047;DHT22;9148;51.454;13.862;2022-07-23T02:39:49;18.50;99.90
18047;DHT22;9148;51.454;13.862;2022-07-23T02:42:15;18.50;99.90
18047;DHT22;9148;51.454;13.862;2022-07-23T02:44:41;18.60;99.90
18047;DHT22;9148;51.454;13.862;2022-07-23T02:47:07;18.60;99.90
18047;DHT22;9148;51.454;13.862;2022-07-23T02:49:33;18.60;99.90
18047;DHT22;9148;51.454;13.862;2022-07-23T02:51:58;18.60;99.90
18047;DHT22;9148;51.454;13.862;2022-07-23T02:54:24;18.60;99.90
18047;DHT22;9148;51.454;13.862;2022-07-23T02:56:50;18.70;99.90
18047;DHT22;9148;51.454;13.862;2022-07-23T02:59:16;18.70;99.90
18047;DHT22;9148;51.454;13.862;2022-07-23T03:01:43;18.70;99.90
18047;DHT22;9148;51.454;13.862;2022-07-23T03:04:08;18.80;99.90
18047;DHT22;9148;51.454;13.862;2022-07-23T03:06:34;18.80;99.90
18047;DHT22;9148;51.454;13.862;2022-07-23T03:09:00;18.80;99.90
18047;DHT22;9148;51.454;13.862;2022-07-23T03:11:26;18.80;99.90
18047;DHT22;9148;51.454;13.862;2022-07-23T03:13:51;18.70;99.90
18047;DHT22;9148;51.454;13.862;2022-07-23T03:16:17;18.70;99.90
18047;DHT22;9148;51.454;13.862;2022-07-23T03:18:42;18.60;99.90
18047;DHT22;9148;51.454;13.862;2022-07-23T03:21:08;18.50;99.90
18047;DHT22;9148;51.454;13.862;2022-07-23T03:23:34;18.50;99.90
18047;DHT22;9148;51.454;13.862;2022-07-23T03:26:00;18.40;99.90
18047;DHT22;9148;51.454;13.862;2022-07-23T03:28:26;18.40;99.90
18047;DHT22;9148;51.454;13.862;2022-07-23T03:30:52;18.40;99.90
18047;DHT22;9148;51.454;13.862;2022-07-23T03:33:20;18.40;99.90
18047;DHT22;9148;51.454;13.862;2022-07-23T03:35:47;18.30;99.90
18047;DHT22;9148;51.454;13.862;2022-07-23T03:38:12;18.30;99.90
18047;DHT22;9148;51.454;13.862;2022-07-23T03:40:38;18.40;99.90
18047;DHT22;9148;51.454;13.862;2022-07-23T03:43:04;18.40;99.90
18047;DHT22;9148;51.454;13.862;2022-07-23T03:45:30;18.40;99.90
18047;DHT22;9148;51.454;13.862;2022-07-23T03:47:56;18.50;99.90
18047;DHT22;9148;51.454;13.862;2022-07-23T03:50:22;18.50;99.90
18047;DHT22;9148;51.454;13.862;2022-07-23T03:52:48;18.60;99.90
18047;DHT22;9148;51.454;13.862;2022-07-23T03:55:14;18.60;99.90
18047;DHT22;9148;51.454;13.862;2022-07-23T03:57:40;18.60;99.90
18047;DHT22;9148;51.454;13.862;2022-07-23T04:00:06;18.70;99.90
18047;DHT22;9148;51.454;13.862;2022-07-23T04:02:34;18.70;99.90
18047;DHT22;9148;51.454;13.862;2022-07-23T04:05:00;18.70;99.90
18047;DHT22;9148;51.454;13.862;2022-07-23T04:07:26;18.80;99.90
18047;DHT22;9148;51.454;13.862;2022-07-23T04:09:52;18.90;99.90
18047;DHT22;9148;51.454;13.862;2022-07-23T04:12:18;18.80;99.90
18047;DHT22;9148;51.454;13.862;2022-07-23T04:14:44;18.90;99.90
18047;DHT22;9148;51.454;13.862;2022-07-23T04:17:10;18.90;99.90
18047;DHT22;9148;51.454;13.862;2022-07-23T04:19:36;18.90;99.90
18047;DHT22;9148;51.454;13.862;2022-07-23T04:22:06;19.00;99.90
18047;DHT22;9148;51.454;13.862;2022-07-23T04:24:32;19.00;99.90
18047;DHT22;9148;51.454;13.862;2022-07-23T04:26:58;19.00;99.90
18047;DHT22;9148;51.454;13.862;2022-07-23T04:29:24;19.10;99.90
18047;DHT22;9148;51.454;13.862;2022-07-23T04:31:50;19.10;99.90
18047;DHT22;9148;51.454;13.862;2022-07-23T04:34:16;19.10;99.90
18047;DHT22;9148;51.454;13.862;2022-07-23T04:36:41;19.10;99.90
18047;DHT22;9148;51.454;13.862;2022-07-23T04:39:08;19.20;99.90
18047;DHT22;9148;51.454;13.862;2022-07-23T04:41:33;19.20;99.90
18047;DHT22;9148;51.454;13.862;2022-07-23T04:44:00;19.30;99.90
18047;DHT22;9148;51.454;13.862;2022-07-23T04:46:26;19.40;99.90
18047;DHT22;9148;51.454;13.862;2022-07-23T04:48:53;19.40;99.90
18047;DHT22;9148;51.454;13.862;2022-07-23T04:51:18;19.50;99.90
18047;DHT22;9148;51.454;13.862;2022-07-23T04:53:44;19.60;99.90
18047;DHT22;9148;51.454;13.862;2022-07-23T04:56:10;19.70;99.90
18047;DHT22;9148;51.454;13.862;2022-07-23T04:58:35;19.80;99.90
18047;DHT22;9148;51.454;13.862;2022-07-23T05:01:01;19.90;99.90
18047;DHT22;9148;51.454;13.862;2022-07-23T05:03:27;19.80;99.90
18047;DHT22;9148;51.454;13.862;2022-07-23T05:05:53;20.00;99.90
18047;DHT22;9148;51.454;13.862;2022-07-23T05:08:19;20.10;99.90
18047;DHT22;9148;51.454;13.862;2022-07-23T05:10:44;20.10;99.90
18047;DHT22;9148;51.454;13.862;2022-07-23T05:13:10;20.20;99.90
18047;DHT22;9148;51.454;13.862;2022-07-23T05:15:36;20.20;99.90
18047;DHT22;9148;51.454;13.862;2022-07-23T05:18:02;20.20;99.90
18047;DHT22;9148;51.454;13.862;2022-07-23T05:20:27;20.20;99.90
18047;DHT22;9148;51.454;13.862;2022-07-23T05:22:53;20.30;99.90
18047;DHT22;9148;51.454;13.862;2022-07-23T05:25:19;20.20;99.90
18047;DHT22;9148;51.454;13.862;2022-07-23T05:27:44;20.20;99.90
18047;DHT22;9148;51.454;13.862;2022-07-23T05:30:10;20.20;99.90
18047;DHT22;9148;51.454;13.862;2022-07-23T05:32:36;20.20;99.90
18047;DHT22;9148;51.454;13.862;2022-07-23T05:35:06;20.10;99.90
18047;DHT22;9148;51.454;13.862;2022-07-23T05:37:32;20.10;99.90
18047;DHT22;9148;51.454;13.862;2022-07-23T05:40:03;20.10;99.90
18047;DHT22;9148;51.454;13.862;2022-07-23T05:42:34;20.10;99.90
18047;DHT22;9148;51.454;13.862;2022-07-23T05:45:00;20.10;99.90
18047;DHT22;9148;51.454;13.862;2022-07-23T05:47:26;20.10;99.90
18047;DHT22;9148;51.454;13.862;2022-07-23T05:49:52;20.10;99.90
18047;DHT22;9148;51.454;13.862;2022-07-23T05:52:17;20.00;99.90
18047;DHT22;9148;51.454;13.862;2022-07-23T05:54:43;20.20;99.90
18047;DHT22;9148;51.454;13.862;2022-07-23T05:57:09;20.10;99.90
18047;DHT22;9148;51.454;13.862;2022-07-23T05:59:35;20.10;99.90
18047;DHT22;9148;51.454;13.862;2022-07-23T06:02:00;20.00;99.90
18047;DHT22;9148;51.454;13.862;2022-07-23T06:04:26;20.00;99.90
18047;DHT22;9148;51.454;13.862;2022-07-23T06:06:52;19.90;99.90
18047;DHT22;9148;51.454;13.862;2022-07-23T06:09:17;19.80;99.90
18047;DHT22;9148;51.454;13.862;2022-07-23T06:11:43;19.80;99.90
18047;DHT22;9148;51.454;13.862;2022-07-23T06:14:09;19.70;99.90
18047;DHT22;9148;51.454;13.862;2022-07-23T06:16:35;19.70;99.90
18047;DHT22;9148;51.454;13.862;2022-07-23T06:19:00;19.70;99.90
18047;DHT22;9148;51.454;13.862;2022-07-23T06:21:26;19.70;99.90
18047;DHT22;9148;51.454;13.862;2022-07-23T06:23:52;19.70;99.90
18047;DHT22;9148;51.454;13.862;2022-07-23T06:26:17;19.70;99.90
18047;DHT22;9148;51.454;13.862;2022-07-23T06:28:43;19.70;99.90
18047;DHT22;9148;51.454;13.862;2022-07-23T06:31:08;19.80;99.90
18047;DHT22;9148;51.454;13.862;2022-07-23T06:33:34;19.90;99.90
18047;DHT22;9148;51.454;13.862;2022-07-23T06:36:00;19.80;99.90
18047;DHT22;9148;51.454;13.862;2022-07-23T06:38:25;19.80;99.90
18047;DHT22;9148;51.454;13.862;2022-07-23T06:40:51;19.80;99.90
18047;DHT22;9148;51.454;13.862;2022-07-23T06:43:17;19.70;99.90
18047;DHT22;9148;51.454;13.862;2022-07-23T06:45:42;19.70;99.90
18047;DHT22;9148;51.454;13.862;2022-07-23T06:48:08;19.70;99.90
18047;DHT22;9148;51.454;13.862;2022-07-23T06:50:34;19.80;99.90
18047;DHT22;9148;51.454;13.862;2022-07-23T06:53:00;20.00;99.90
18047;DHT22;9148;51.454;13.862;2022-07-23T06:55:25;20.20;99.90
18047;DHT22;9148;51.454;13.862;2022-07-23T06:57:51;20.40;99.90
18047;DHT22;9148;51.454;13.862;2022-07-23T07:00:17;20.70;99.90
18047;DHT22;9148;51.454;13.862;2022-07-23T07:02:43;20.90;99.90
18047;DHT22;9148;51.454;13.862;2022-07-23T07:05:08;21.20;99.90
18047;DHT22;9148;51.454;13.862;2022-07-23T07:07:34;21.40;99.90
18047;DHT22;9148;51.454;13.862;2022-07-23T07:10:01;21.60;99.90
18047;DHT22;9148;51.454;13.862;2022-07-23T07:12:28;21.80;99.90
18047;DHT22;9148;51.454;13.862;2022-07-23T07:14:53;21.90;99.90
18047;DHT22;9148;51.454;13.862;2022-07-23T07:17:19;22.10;99.90
18047;DHT22;9148;51.454;13.862;2022-07-23T07:19:45;22.20;99.90
18047;DHT22;9148;51.454;13.862;2022-07-23T07:22:10;22.40;99.90
18047;DHT22;9148;51.454;13.862;2022-07-23T07:24:36;22.60;99.90
18047;DHT22;9148;51.454;13.862;2022-07-23T07:27:02;23.00;99.90
18047;DHT22;9148;51.454;13.862;2022-07-23T07:29:27;23.30;99.40
18047;DHT22;9148;51.454;13.862;2022-07-23T07:31:53;23.80;98.60
18047;DHT22;9148;51.454;13.862;2022-07-23T07:34:19;24.20;97.30
18047;DHT22;9148;51.454;13.862;2022-07-23T07:36:45;24.60;95.60
18047;DHT22;9148;51.454;13.862;2022-07-23T07:39:11;24.90;94.00
18047;DHT22;9148;51.454;13.862;2022-07-23T07:41:36;25.10;92.20
18047;DHT22;9148;51.454;13.862;2022-07-23T07:44:02;25.20;91.20
18047;DHT22;9148;51.454;13.862;2022-07-23T07:46:28;25.40;90.30
18047;DHT22;9148;51.454;13.862;2022-07-23T07:48:55;25.50;89.50
18047;DHT22;9148;51.454;13.862;2022-07-23T07:51:21;25.60;87.10
18047;DHT22;9148;51.454;13.862;2022-07-23T07:53:47;25.80;86.90
18047;DHT22;9148;51.454;13.862;2022-07-23T07:56:12;26.00;85.40
18047;DHT22;9148;51.454;13.862;2022-07-23T07:58:38;26.10;83.90
18047;DHT22;9148;51.454;13.862;2022-07-23T08:01:04;26.30;81.70
18047;DHT22;9148;51.454;13.862;2022-07-23T08:03:29;26.40;81.00
18047;DHT22;9148;51.454;13.862;2022-07-23T08:05:55;26.40;79.10
18047;DHT22;9148;51.454;13.862;2022-07-23T08:08:21;26.40;78.30
18047;DHT22;9148;51.454;13.862;2022-07-23T08:10:47;26.40;77.40
18047;DHT22;9148;51.454;13.862;2022-07-23T08:13:14;26.30;76.40
18047;DHT22;9148;51.454;13.862;2022-07-23T08:15:41;26.30;75.80
18047;DHT22;9148;51.454;13.862;2022-07-23T08:18:08;26.30;75.90
18047;DHT22;9148;51.454;13.862;2022-07-23T08:20:34;26.20;75.40
18047;DHT22;9148;51.454;13.862;2022-07-23T08:23:05;26.10;74.90
18047;DHT22;9148;51.454;13.862;2022-07-23T08:25:41;26.00;74.30
18047;DHT22;9148;51.454;13.862;2022-07-23T08:28:09;25.80;74.10
18047;DHT22;9148;51.454;13.862;2022-07-23T08:30:38;25.70;74.80
18047;DHT22;9148;51.454;13.862;2022-07-23T08:33:15;25.60;74.90
18047;DHT22;9148;51.454;13.862;2022-07-23T08:35:45;25.60;75.00
18047;DHT22;9148;51.454;13.862;2022-07-23T08:38:14;25.70;75.50
18047;DHT22;9148;51.454;13.862;2022-07-23T08:40:43;25.80;76.20
18047;DHT22;9148;51.454;13.862;2022-07-23T08:43:17;26.10;75.40
18047;DHT22;9148;51.454;13.862;2022-07-23T08:45:49;26.40;74.80
18047;DHT22;9148;51.454;13.862;2022-07-23T08:48:21;26.80;74.00
18047;DHT22;9148;51.454;13.862;2022-07-23T08:50:53;27.20;72.80
18047;DHT22;9148;51.454;13.862;2022-07-23T08:53:21;27.60;71.70
18047;DHT22;9148;51.454;13.862;2022-07-23T08:55:52;27.90;70.40
18047;DHT22;9148;51.454;13.862;2022-07-23T08:58:22;28.10;69.30
18047;DHT22;9148;51.454;13.862;2022-07-23T09:00:48;28.30;68.10
18047;DHT22;9148;51.454;13.862;2022-07-23T09:03:25;28.50;67.40
18047;DHT22;9148;51.454;13.862;2022-07-23T09:05:59;28.60;66.10
18047;DHT22;9148;51.454;13.862;2022-07-23T09:08:43;28.60;65.40
18047;DHT22;9148;51.454;13.862;2022-07-23T09:11:11;28.70;65.20
18047;DHT22;9148;51.454;13.862;2022-07-23T09:13:48;28.90;64.70
18047;DHT22;9148;51.454;13.862;2022-07-23T09:16:23;29.10;63.50
18047;DHT22;9148;51.454;13.862;2022-07-23T09:19:01;29.30;62.80
18047;DHT22;9148;51.454;13.862;2022-07-23T09:24:00;29.70;61.70
18047;DHT22;9148;51.454;13.862;2022-07-23T09:26:34;29.80;60.90
18047;DHT22;9148;51.454;13.862;2022-07-23T09:29:14;29.80;60.60
18047;DHT22;9148;51.454;13.862;2022-07-23T09:31:51;29.90;60.50
18047;DHT22;9148;51.454;13.862;2022-07-23T09:34:29;29.90;60.10
18047;DHT22;9148;51.454;13.862;2022-07-23T09:37:10;29.80;59.60
18047;DHT22;9148;51.454;13.862;2022-07-23T09:39:38;29.70;59.60
18047;DHT22;9148;51.454;13.862;2022-07-23T09:42:16;29.70;59.40
18047;DHT22;9148;51.454;13.862;2022-07-23T09:44:48;29.80;59.20
18047;DHT22;9148;51.454;13.862;2022-07-23T09:47:15;30.20;58.50
18047;DHT22;9148;51.454;13.862;2022-07-23T09:50:07;30.30;58.10
18047;DHT22;9148;51.454;13.862;2022-07-23T09:52:49;30.50;57.60
18047;DHT22;9148;51.454;13.862;2022-07-23T09:55:16;30.50;57.20
18047;DHT22;9148;51.454;13.862;2022-07-23T09:57:44;30.50;57.30
18047;DHT22;9148;51.454;13.862;2022-07-23T10:00:11;30.40;57.20
18047;DHT22;9148;51.454;13.862;2022-07-23T10:02:39;30.40;57.30
18047;DHT22;9148;51.454;13.862;2022-07-23T10:05:05;30.30;56.90
18047;DHT22;9148;51.454;13.862;2022-07-23T10:07:34;30.20;56.80
18047;DHT22;9148;51.454;13.862;2022-07-23T10:10:04;29.90;56.60
18047;DHT22;9148;51.454;13.862;2022-07-23T10:12:31;29.60;57.00
18047;DHT22;9148;51.454;13.862;2022-07-23T10:15:24;29.30;57.30
18047;DHT22;9148;51.454;13.862;2022-07-23T10:17:51;29.00;57.70
18047;DHT22;9148;51.454;13.862;2022-07-23T10:20:17;28.70;58.10
18047;DHT22;9148;51.454;13.862;2022-07-23T10:22:58;28.40;58.60
18047;DHT22;9148;51.454;13.862;2022-07-23T10:25:36;28.20;59.10
18047;DHT22;9148;51.454;13.862;2022-07-23T10:31:13;28.00;60.00
18047;DHT22;9148;51.454;13.862;2022-07-23T10:33:56;28.10;59.90
18047;DHT22;9148;51.454;13.862;2022-07-23T10:36:44;28.10;59.90
18047;DHT22;9148;51.454;13.862;2022-07-23T10:39:24;28.10;60.20
18047;DHT22;9148;51.454;13.862;2022-07-23T10:41:52;28.10;60.40
18047;DHT22;9148;51.454;13.862;2022-07-23T10:44:20;28.10;60.80
18047;DHT22;9148;51.454;13.862;2022-07-23T10:49:41;28.10;61.10
18047;DHT22;9148;51.454;13.862;2022-07-23T10:52:26;28.00;61.00
18047;DHT22;9148;51.454;13.862;2022-07-23T10:54:55;27.80;61.50
18047;DHT22;9148;51.454;13.862;2022-07-23T10:57:27;27.70;62.00
18047;DHT22;9148;51.454;13.862;2022-07-23T11:02:34;28.00;62.50
18047;DHT22;9148;51.454;13.862;2022-07-23T11:05:08;28.10;62.40
18047;DHT22;9148;51.454;13.862;2022-07-23T11:07:36;28.30;61.30
18047;DHT22;9148;51.454;13.862;2022-07-23T11:10:03;28.20;60.90
18047;DHT22;9148;51.454;13.862;2022-07-23T11:17:35;27.80;61.30
18047;DHT22;9148;51.454;13.862;2022-07-23T11:22:39;27.30;62.40
18047;DHT22;9148;51.454;13.862;2022-07-23T11:25:06;27.00;62.80
18047;DHT22;9148;51.454;13.862;2022-07-23T11:27:45;26.70;63.40
18047;DHT22;9148;51.454;13.862;2022-07-23T11:32:54;26.20;64.60
18047;DHT22;9148;51.454;13.862;2022-07-23T11:35:26;26.10;65.20
18047;DHT22;9148;51.454;13.862;2022-07-23T11:37:54;25.90;65.70
18047;DHT22;9148;51.454;13.862;2022-07-23T11:40:28;25.80;66.50
18047;DHT22;9148;51.454;13.862;2022-07-23T11:42:58;25.70;67.20
18047;DHT22;9148;51.454;13.862;2022-07-23T11:45:40;25.60;67.70
18047;DHT22;9148;51.454;13.862;2022-07-23T11:48:09;25.60;68.30
18047;DHT22;9148;51.454;13.862;2022-07-23T11:50:40;25.50;68.60
18047;DHT22;9148;51.454;13.862;2022-07-23T11:53:05;25.40;69.00
18047;DHT22;9148;51.454;13.862;2022-07-23T11:55:31;25.40;69.30
18047;DHT22;9148;51.454;13.862;2022-07-23T11:57:57;25.40;69.60
18047;DHT22;9148;51.454;13.862;2022-07-23T12:00:25;25.30;69.70
18047;DHT22;9148;51.454;13.862;2022-07-23T12:02:56;25.30;70.00
18047;DHT22;9148;51.454;13.862;2022-07-23T12:05:32;25.20;70.30
18047;DHT22;9148;51.454;13.862;2022-07-23T12:07:59;25.10;71.30
18047;DHT22;9148;51.454;13.862;2022-07-23T12:10:29;25.00;73.30
18047;DHT22;9148;51.454;13.862;2022-07-23T12:12:58;24.70;75.70
18047;DHT22;9148;51.454;13.862;2022-07-23T12:15:32;24.40;77.80
18047;DHT22;9148;51.454;13.862;2022-07-23T12:18:02;24.00;80.10
18047;DHT22;9148;51.454;13.862;2022-07-23T12:20:34;23.70;82.70
18047;DHT22;9148;51.454;13.862;2022-07-23T12:23:03;23.30;85.70
18047;DHT22;9148;51.454;13.862;2022-07-23T12:25:53;23.00;88.50
18047;DHT22;9148;51.454;13.862;2022-07-23T12:28:21;22.90;90.70
18047;DHT22;9148;51.454;13.862;2022-07-23T12:30:54;22.70;92.10
18047;DHT22;9148;51.454;13.862;2022-07-23T12:33:25;22.60;92.90
18047;DHT22;9148;51.454;13.862;2022-07-23T12:35:57;22.60;93.50
18047;DHT22;9148;51.454;13.862;2022-07-23T12:40:56;22.60;94.20
18047;DHT22;9148;51.454;13.862;2022-07-23T12:43:27;22.70;94.50
18047;DHT22;9148;51.454;13.862;2022-07-23T12:45:56;22.80;94.60
18047;DHT22;9148;51.454;13.862;2022-07-23T12:48:30;23.00;94.40
18047;DHT22;9148;51.454;13.862;2022-07-23T12:51:01;23.30;94.00
18047;DHT22;9148;51.454;13.862;2022-07-23T12:53:48;23.70;93.40
18047;DHT22;9148;51.454;13.862;2022-07-23T12:56:26;24.10;92.10
18047;DHT22;9148;51.454;13.862;2022-07-23T13:04:20;25.00;88.20
18047;DHT22;9148;51.454;13.862;2022-07-23T13:06:56;25.40;85.80
18047;DHT22;9148;51.454;13.862;2022-07-23T13:09:29;25.70;84.20
18047;DHT22;9148;51.454;13.862;2022-07-23T13:11:56;25.90;81.90
18047;DHT22;9148;51.454;13.862;2022-07-23T13:14:24;26.10;79.10
18047;DHT22;9148;51.454;13.862;2022-07-23T13:16:51;26.10;78.30
18047;DHT22;9148;51.454;13.862;2022-07-23T13:19:18;26.20;77.70
18047;DHT22;9148;51.454;13.862;2022-07-23T13:21:45;26.40;76.90
18047;DHT22;9148;51.454;13.862;2022-07-23T13:24:12;26.40;75.10
18047;DHT22;9148;51.454;13.862;2022-07-23T13:26:39;26.50;74.40
18047;DHT22;9148;51.454;13.862;2022-07-23T13:29:06;26.50;74.10
18047;DHT22;9148;51.454;13.862;2022-07-23T13:31:32;26.60;72.40
18047;DHT22;9148;51.454;13.862;2022-07-23T13:33:58;26.60;70.80
18047;DHT22;9148;51.454;13.862;2022-07-23T13:36:24;26.50;70.60
18047;DHT22;9148;51.454;13.862;2022-07-23T13:38:49;26.50;70.30
18047;DHT22;9148;51.454;13.862;2022-07-23T13:41:17;26.50;69.90
18047;DHT22;9148;51.454;13.862;2022-07-23T13:43:43;26.60;70.00
18047;DHT22;9148;51.454;13.862;2022-07-23T13:46:09;26.70;68.90
18047;DHT22;9148;51.454;13.862;2022-07-23T13:48:35;26.70;68.50
18047;DHT22;9148;51.454;13.862;2022-07-23T13:51:00;26.70;67.20
18047;DHT22;9148;51.454;13.862;2022-07-23T13:53:26;26.60;67.10
18047;DHT22;9148;51.454;13.862;2022-07-23T13:55:53;26.60;66.20
18047;DHT22;9148;51.454;13.862;2022-07-23T13:58:19;26.50;65.50
18047;DHT22;9148;51.454;13.862;2022-07-23T14:00:51;26.40;65.20
18047;DHT22;9148;51.454;13.862;2022-07-23T14:03:18;26.30;65.10
18047;DHT22;9148;51.454;13.862;2022-07-23T14:05:45;26.20;65.50
18047;DHT22;9148;51.454;13.862;2022-07-23T14:08:11;26.40;65.60
18047;DHT22;9148;51.454;13.862;2022-07-23T14:10:37;26.50;65.50
18047;DHT22;9148;51.454;13.862;2022-07-23T14:13:02;26.80;65.50
18047;DHT22;9148;51.454;13.862;2022-07-23T14:15:30;27.10;64.80
18047;DHT22;9148;51.454;13.862;2022-07-23T14:17:56;27.30;64.70
18047;DHT22;9148;51.454;13.862;2022-07-23T14:20:22;27.60;63.00
18047;DHT22;9148;51.454;13.862;2022-07-23T14:22:49;27.80;62.60
18047;DHT22;9148;51.454;13.862;2022-07-23T14:25:15;28.00;62.20
18047;DHT22;9148;51.454;13.862;2022-07-23T14:27:41;28.10;61.10
18047;DHT22;9148;51.454;13.862;2022-07-23T14:30:08;28.00;60.50
18047;DHT22;9148;51.454;13.862;2022-07-23T14:32:35;28.00;60.30
18047;DHT22;9148;51.454;13.862;2022-07-23T14:35:02;27.90;60.40
18047;DHT22;9148;51.454;13.862;2022-07-23T14:37:28;27.90;60.60
18047;DHT22;9148;51.454;13.862;2022-07-23T14:39:53;27.90;60.10
18047;DHT22;9148;51.454;13.862;2022-07-23T14:42:19;27.70;59.60
18047;DHT22;9148;51.454;13.862;2022-07-23T14:44:45;27.70;59.70
18047;DHT22;9148;51.454;13.862;2022-07-23T14:47:11;27.50;59.50
18047;DHT22;9148;51.454;13.862;2022-07-23T14:49:36;27.50;59.90
18047;DHT22;9148;51.454;13.862;2022-07-23T14:52:03;27.50;59.80
18047;DHT22;9148;51.454;13.862;2022-07-23T14:54:32;27.40;59.60
18047;DHT22;9148;51.454;13.862;2022-07-23T14:56:59;27.30;59.70
18047;DHT22;9148;51.454;13.862;2022-07-23T14:59:26;27.20;59.90
18047;DHT22;9148;51.454;13.862;2022-07-23T15:01:53;27.10;60.30
18047;DHT22;9148;51.454;13.862;2022-07-23T15:04:19;27.10;60.50
18047;DHT22;9148;51.454;13.862;2022-07-23T15:06:45;27.10;60.70
18047;DHT22;9148;51.454;13.862;2022-07-23T15:09:10;27.20;60.80
18047;DHT22;9148;51.454;13.862;2022-07-23T15:11:36;27.20;60.50
18047;DHT22;9148;51.454;13.862;2022-07-23T15:14:06;27.40;60.70
18047;DHT22;9148;51.454;13.862;2022-07-23T15:16:33;27.50;59.90
18047;DHT22;9148;51.454;13.862;2022-07-23T15:18:59;27.60;59.40
18047;DHT22;9148;51.454;13.862;2022-07-23T15:21:27;27.60;59.20
18047;DHT22;9148;51.454;13.862;2022-07-23T15:23:54;27.50;58.90
18047;DHT22;9148;51.454;13.862;2022-07-23T15:26:24;27.50;58.60
18047;DHT22;9148;51.454;13.862;2022-07-23T15:28:53;27.40;58.40
18047;DHT22;9148;51.454;13.862;2022-07-23T15:31:20;27.30;58.50
18047;DHT22;9148;51.454;13.862;2022-07-23T15:33:46;27.40;58.40
18047;DHT22;9148;51.454;13.862;2022-07-23T15:36:11;27.30;58.30
18047;DHT22;9148;51.454;13.862;2022-07-23T15:38:37;27.30;58.30
18047;DHT22;9148;51.454;13.862;2022-07-23T15:41:03;27.30;58.40
18047;DHT22;9148;51.454;13.862;2022-07-23T15:43:29;27.30;58.40
18047;DHT22;9148;51.454;13.862;2022-07-23T15:45:54;27.30;58.20
18047;DHT22;9148;51.454;13.862;2022-07-23T15:48:21;27.30;58.00
18047;DHT22;9148;51.454;13.862;2022-07-23T15:50:47;27.20;57.50
18047;DHT22;9148;51.454;13.862;2022-07-23T15:53:13;27.10;57.70
18047;DHT22;9148;51.454;13.862;2022-07-23T15:55:39;27.10;57.90
18047;DHT22;9148;51.454;13.862;2022-07-23T15:58:05;27.00;58.00
18047;DHT22;9148;51.454;13.862;2022-07-23T16:00:32;27.00;57.70
18047;DHT22;9148;51.454;13.862;2022-07-23T16:02:58;26.90;57.70